Time;durP1;ratioP1;P1;durP2;ratioP2;P2;SDS_P1;SDS_P2;PMS_P1;PMS_P2;Temp;Humidity;BMP_temperature;BMP_pressure;BME280_temperature;BME280_humidity;BME280_pressure;Samples;Min_cycle;Max_cycle;Signal;HPM_P1;HPM_P2
2023/04/24 00:02:10;;;;;;;3.97;1.20;;;;;;;21.53;100.00;95402.78;4944993;28;20090;-57
2023/04/24 00:04:40;;;;;;;2.38;1.23;;;;;;;22.34;99.57;95391.88;4938495;28;20509;-57
2023/04/24 00:07:09;;;;;;;2.47;1.10;;;;;;;22.47;97.35;95391.56;4940758;28;20562;-59
2023/04/24 00:09:37;;;;;;;2.90;1.00;;;;;;;22.39;94.33;95393.84;4940264;28;20550;-59
2023/04/24 00:12:05;;;;;;;1.75;0.90;;;;;;;22.91;87.43;95391.63;4939617;28;20086;-55
2023/04/24 00:14:34;;;;;;;1.85;1.20;;;;;;;22.66;90.33;95386.72;4941797;28;20488;-58
2023/04/24 00:17:04;;;;;;;4.03;1.17;;;;;;;23.16;85.39;95377.75;4939113;28;20134;-56
2023/04/24 00:19:32;;;;;;;1.50;1.07;;;;;;;22.82;83.06;95378.88;4946253;28;20079;-55
2023/04/24 00:22:01;;;;;;;1.98;1.30;;;;;;;22.93;84.72;95378.78;4947375;28;20090;-59
2023/04/24 00:24:29;;;;;;;2.05;1.00;;;;;;;22.50;91.63;95374.13;4927686;28;20071;-56
2023/04/24 00:26:58;;;;;;;1.58;1.00;;;;;;;23.11;84.49;95374.97;4942774;28;20087;-60
2023/04/24 00:29:26;;;;;;;2.38;1.15;;;;;;;23.31;80.39;95368.22;4945872;28;20071;-54
2023/04/24 00:31:54;;;;;;;2.15;1.08;;;;;;;23.21;77.68;95361.66;4941264;28;20075;-58
2023/04/24 00:34:24;;;;;;;2.35;1.20;;;;;;;23.10;82.97;95365.31;4941287;28;20094;-57
2023/04/24 00:36:52;;;;;;;1.87;1.10;;;;;;;23.16;77.15;95363.50;4945441;28;20083;-53
2023/04/24 00:39:21;;;;;;;3.63;1.00;;;;;;;23.41;78.19;95365.66;4953387;28;20094;-57
2023/04/24 00:41:50;;;;;;;2.17;1.20;;;;;;;23.57;73.53;95366.63;4941855;28;20146;-58
2023/04/24 00:44:19;;;;;;;1.30;0.90;;;;;;;23.23;75.24;95372.19;4941325;28;20083;-54
2023/04/24 00:46:51;;;;;;;2.72;1.00;;;;;;;23.04;81.56;95370.88;4948335;28;20098;-57
2023/04/24 00:49:20;;;;;;;4.07;1.13;;;;;;;22.55;85.96;95376.88;4947443;28;20081;-59
2023/04/24 00:51:51;;;;;;;2.65;1.05;;;;;;;23.05;81.37;95364.41;4952948;28;20550;-59
2023/04/24 00:54:19;;;;;;;1.23;0.90;;;;;;;22.46;89.35;95381.03;4950858;28;20101;-57
2023/04/24 00:56:48;;;;;;;2.70;1.17;;;;;;;22.15;91.10;95379.75;4943361;28;20106;-55
2023/04/24 00:59:17;;;;;;;2.25;1.00;;;;;;;22.53;89.06;95376.31;4946059;28;20086;-52
2023/04/24 01:01:46;;;;;;;1.33;0.90;;;;;;;22.86;80.55;95370.06;4950285;28;20051;-58
2023/04/24 01:04:15;;;;;;;2.65;1.00;;;;;;;22.90;79.01;95365.81;4952568;28;20334;-60
2023/04/24 01:06:44;;;;;;;2.15;0.95;;;;;;;22.55;83.13;95365.34;4949413;28;20101;-57
2023/04/24 01:09:15;;;;;;;1.73;1.00;;;;;;;21.69;91.25;95377.06;4942856;28;20046;-58
2023/04/24 01:11:43;;;;;;;0.77;0.65;;;;;;;22.06;87.22;95371.28;4948044;28;20573;-60
2023/04/24 01:14:12;;;;;;;1.10;0.80;;;;;;;22.28;85.68;95364.13;4950035;28;20086;-58
2023/04/24 01:16:41;;;;;;;2.45;0.70;;;;;;;22.47;83.54;95372.75;4947960;28;21120;-56
2023/04/24 01:19:11;;;;;;;1.40;0.80;;;;;;;22.23;83.92;95364.06;4944947;28;20077;-56
2023/04/24 01:21:40;;;;;;;0.98;0.57;;;;;;;21.81;90.33;95374.31;4943239;28;20471;-57
2023/04/24 01:24:09;;;;;;;2.45;0.70;;;;;;;22.44;80.21;95365.19;4948176;28;20095;-58
2023/04/24 01:26:38;;;;;;;1.57;0.60;;;;;;;21.86;87.44;95366.38;4946414;28;20087;-62
2023/04/24 01:29:06;;;;;;;0.85;0.60;;;;;;;21.32;92.09;95364.00;4944312;28;20400;-58
2023/04/24 01:31:35;;;;;;;0.70;0.50;;;;;;;22.08;79.88;95366.44;4943442;28;21546;-55
2023/04/24 01:34:03;;;;;;;3.40;0.70;;;;;;;22.32;79.85;95359.06;4944718;28;20087;-58
2023/04/24 01:36:32;;;;;;;2.20;0.65;;;;;;;21.82;83.94;95365.22;4947762;28;20086;-56
2023/04/24 01:39:01;;;;;;;1.05;0.70;;;;;;;22.78;74.27;95349.00;4942243;28;20097;-56
2023/04/24 01:41:32;;;;;;;2.40;0.70;;;;;;;22.71;71.36;95351.03;4945973;28;20091;-60
2023/04/24 01:44:00;;;;;;;1.10;0.70;;;;;;;22.89;67.87;95352.63;4926698;28;20083;-58
2023/04/24 01:46:28;;;;;;;1.40;0.70;;;;;;;23.01;67.08;95352.53;4943239;28;20135;-58
2023/04/24 01:48:57;;;;;;;0.70;0.60;;;;;;;22.62;70.74;95356.03;4949896;28;20075;-58
2023/04/24 01:51:26;;;;;;;1.05;0.50;;;;;;;22.74;72.10;95354.03;4944715;28;20094;-56
2023/04/24 01:53:55;;;;;;;1.20;0.60;;;;;;;22.17;72.58;95353.47;4957461;28;20105;-57
2023/04/24 01:56:23;;;;;;;1.80;0.70;;;;;;;22.70;70.47;95355.59;4945380;28;20090;-57
2023/04/24 01:58:53;;;;;;;3.08;0.70;;;;;;;22.58;72.36;95354.09;4947816;28;20091;-56
2023/04/24 02:01:22;;;;;;;0.60;0.60;;;;;;;21.99;73.38;95354.50;4948456;28;20081;-57
2023/04/24 02:03:50;;;;;;;0.60;0.60;;;;;;;21.87;75.65;95359.13;4941369;28;20571;-57
2023/04/24 02:06:18;;;;;;;1.15;0.60;;;;;;;22.47;70.77;95355.78;4947802;28;20082;-56
2023/04/24 02:08:47;;;;;;;1.00;0.60;;;;;;;22.10;76.22;95347.44;4947730;28;20118;-54
2023/04/24 02:11:15;;;;;;;1.10;0.50;;;;;;;21.77;74.15;95352.50;4940607;28;20147;-57
2023/04/24 02:13:43;;;;;;;0.85;0.55;;;;;;;22.20;73.96;95344.94;4943425;28;20138;-57
2023/04/24 02:16:13;;;;;;;1.63;0.90;;;;;;;21.72;78.16;95346.25;4940213;28;20129;-57
2023/04/24 02:18:41;;;;;;;1.13;0.60;;;;;;;21.55;78.88;95347.03;4951786;28;20094;-56
2023/04/24 02:21:09;;;;;;;1.02;0.55;;;;;;;21.53;80.44;95345.66;4951585;28;20082;-54
2023/04/24 02:23:38;;;;;;;0.60;0.60;;;;;;;21.17;80.85;95349.50;4962338;28;20087;-57
2023/04/24 02:26:07;;;;;;;1.23;0.60;;;;;;;22.15;71.40;95345.66;4943403;28;20619;-57
2023/04/24 02:28:35;;;;;;;1.30;0.60;;;;;;;21.85;71.58;95340.59;4945279;28;20472;-54
2023/04/24 02:31:03;;;;;;;0.95;0.50;;;;;;;21.91;73.97;95341.47;4938566;28;20082;-60
2023/04/24 02:33:33;;;;;;;0.55;0.40;;;;;;;21.86;74.36;95344.91;4944487;28;20091;-56
2023/04/24 02:36:01;;;;;;;0.57;0.47;;;;;;;22.27;69.74;95345.59;4946657;28;20097;-58
2023/04/24 02:38:29;;;;;;;0.57;0.50;;;;;;;22.12;70.94;95347.97;4947621;28;20494;-56
2023/04/24 02:40:57;;;;;;;0.60;0.32;;;;;;;21.39;76.11;95344.31;4944135;28;20085;-56
2023/04/24 02:43:26;;;;;;;1.25;0.43;;;;;;;21.62;74.30;95338.03;4945041;28;20071;-53
2023/04/24 02:45:54;;;;;;;2.63;0.50;;;;;;;21.58;74.40;95335.03;4926157;28;20079;-58
2023/04/24 02:48:23;;;;;;;0.75;0.50;;;;;;;21.33;77.75;95336.16;4944017;28;20097;-59
2023/04/24 02:50:53;;;;;;;1.38;0.45;;;;;;;22.10;71.30;95337.50;4949135;28;20098;-55
2023/04/24 02:53:21;;;;;;;0.73;0.30;;;;;;;21.21;75.63;95339.94;4939575;28;20444;-57
2023/04/24 02:55:49;;;;;;;2.33;0.55;;;;;;;21.60;74.86;95335.56;4942064;28;20530;-55
2023/04/24 02:58:19;;;;;;;0.30;0.30;;;;;;;21.55;72.11;95338.19;4944642;28;20624;-57
2023/04/24 03:00:48;;;;;;;2.35;0.80;;;;;;;21.79;71.59;95333.50;4944961;28;20086;-57
2023/04/24 03:03:16;;;;;;;0.40;0.40;;;;;;;22.35;68.17;95337.09;4942205;28;20122;-56
2023/04/24 03:05:45;;;;;;;0.63;0.57;;;;;;;21.73;70.30;95342.53;4948330;28;20498;-54
2023/04/24 03:08:15;;;;;;;0.88;0.65;;;;;;;21.75;73.63;95338.53;4947728;28;20543;-59
2023/04/24 03:10:43;;;;;;;0.88;0.57;;;;;;;21.74;75.91;95341.44;4941634;28;20083;-59
2023/04/24 03:13:16;;;;;;;0.57;0.38;;;;;;;21.88;72.21;95336.59;4942955;28;20098;-59
2023/04/24 03:15:44;;;;;;;1.25;0.60;;;;;;;20.66;89.04;95335.06;4938131;28;20582;-57
2023/04/24 03:18:13;;;;;;;1.25;0.50;;;;;;;21.02;83.32;95332.03;4940781;28;20641;-58
2023/04/24 03:20:41;;;;;;;0.68;0.40;;;;;;;21.54;74.24;95339.22;4941909;28;20097;-58
2023/04/24 03:23:09;;;;;;;0.93;0.50;;;;;;;21.60;74.98;95335.56;4945182;28;20082;-56
2023/04/24 03:25:39;;;;;;;2.00;0.50;;;;;;;21.69;77.70;95339.50;4942405;28;20083;-54
2023/04/24 03:28:07;;;;;;;0.73;0.52;;;;;;;21.22;79.27;95336.19;4944847;28;20084;-55
2023/04/24 03:30:35;;;;;;;1.90;0.40;;;;;;;21.88;73.43;95333.91;4942371;28;20087;-58
2023/04/24 03:33:04;;;;;;;1.15;0.40;;;;;;;21.27;78.87;95341.66;4942931;28;20082;-54
2023/04/24 03:35:32;;;;;;;0.60;0.50;;;;;;;20.75;87.13;95353.22;4942000;28;20554;-53
2023/04/24 03:38:00;;;;;;;0.70;0.52;;;;;;;21.47;81.38;95346.59;4942230;28;20091;-53
2023/04/24 03:40:29;;;;;;;2.17;0.68;;;;;;;21.20;83.66;95355.22;4941685;28;20669;-57
2023/04/24 03:42:59;;;;;;;1.23;0.90;;;;;;;20.82;88.70;95345.06;4942044;28;20094;-58
2023/04/24 03:45:27;;;;;;;1.70;0.60;;;;;;;20.81;88.28;95356.81;4943650;28;20094;-60
2023/04/24 03:47:55;;;;;;;1.02;0.70;;;;;;;20.57;87.64;95364.84;4945959;28;20535;-57
2023/04/24 03:50:24;;;;;;;0.63;0.50;;;;;;;20.92;85.37;95360.50;4942016;28;20090;-60
2023/04/24 03:52:52;;;;;;;3.10;0.50;;;;;;;20.70;87.65;95352.28;4942372;28;20090;-55
2023/04/24 03:55:20;;;;;;;1.88;0.63;;;;;;;20.95;88.02;95360.84;4942945;28;20078;-55
2023/04/24 03:57:48;;;;;;;1.67;0.55;;;;;;;20.96;88.83;95348.28;4944419;28;20102;-54
2023/04/24 04:00:18;;;;;;;1.63;0.35;;;;;;;20.90;90.77;95352.72;4942858;28;20079;-56
2023/04/24 04:02:46;;;;;;;1.40;1.00;;;;;;;21.72;80.94;95355.13;4946172;28;20090;-56
2023/04/24 04:05:15;;;;;;;0.73;0.50;;;;;;;21.44;81.45;95355.97;4940080;28;20173;-58
2023/04/24 04:07:43;;;;;;;1.50;0.60;;;;;;;21.59;79.36;95347.38;4941240;28;20095;-57
2023/04/24 04:10:11;;;;;;;0.85;0.63;;;;;;;21.14;84.13;95350.78;4938700;28;20087;-54
2023/04/24 04:12:40;;;;;;;0.77;0.55;;;;;;;21.72;77.94;95354.31;4941027;28;20083;-58
2023/04/24 04:15:08;;;;;;;1.27;0.60;;;;;;;21.67;80.33;95343.47;4940281;28;20138;-58
2023/04/24 04:17:38;;;;;;;1.75;0.60;;;;;;;22.04;74.62;95344.66;4948528;28;20086;-59
2023/04/24 04:20:09;;;;;;;1.55;0.50;;;;;;;22.11;71.69;95341.00;4950004;28;20082;-58
2023/04/24 04:22:38;;;;;;;2.38;0.82;;;;;;;22.09;71.24;95338.53;4948312;28;20078;-52
2023/04/24 04:25:08;;;;;;;2.95;0.68;;;;;;;22.16;73.13;95339.25;4947234;28;20094;-59
2023/04/24 04:27:36;;;;;;;1.23;0.50;;;;;;;22.08;72.00;95342.28;4942967;28;20035;-58
2023/04/24 04:30:20;;;;;;;1.58;0.60;;;;;;;21.82;73.92;95343.75;4940723;28;20118;-55
2023/04/24 04:32:51;;;;;;;2.42;0.60;;;;;;;21.92;72.48;95346.63;4942210;28;20138;-60
2023/04/24 04:35:19;;;;;;;0.85;0.60;;;;;;;21.79;72.29;95349.59;4941415;28;20094;-59
2023/04/24 04:37:51;;;;;;;1.15;0.60;;;;;;;22.22;71.79;95351.66;4946079;28;20094;-59
2023/04/24 04:40:20;;;;;;;1.15;0.50;;;;;;;22.03;73.83;95352.97;4945040;28;20639;-61
2023/04/24 04:42:48;;;;;;;1.85;0.60;;;;;;;22.25;70.50;95358.44;4945582;28;20079;-57
2023/04/24 04:45:17;;;;;;;0.65;0.60;;;;;;;21.68;74.02;95358.50;4944230;28;20880;-59
2023/04/24 04:47:45;;;;;;;1.05;0.50;;;;;;;22.18;72.09;95358.59;4949535;28;20083;-60
2023/04/24 04:50:16;;;;;;;2.15;0.70;;;;;;;22.16;70.00;95358.03;4945163;28;20472;-58
2023/04/24 04:52:44;;;;;;;1.60;1.00;;;;;;;22.25;70.49;95361.13;4946048;28;20079;-51
2023/04/24 04:55:14;;;;;;;1.70;0.80;;;;;;;22.27;70.64;95365.19;4944537;28;20094;-54
2023/04/24 04:57:42;;;;;;;1.35;0.60;;;;;;;22.49;67.90;95362.56;4944601;28;20090;-54
2023/04/24 05:00:12;;;;;;;1.50;0.68;;;;;;;22.56;65.24;95366.94;4947872;28;20652;-55
2023/04/24 05:02:40;;;;;;;2.15;0.73;;;;;;;22.06;70.47;95371.28;4946999;28;20086;-59
2023/04/24 05:05:09;;;;;;;1.20;0.60;;;;;;;22.61;65.39;95365.16;4945818;28;20091;-55
2023/04/24 05:07:39;;;;;;;4.63;2.42;;;;;;;21.97;70.03;95375.41;4945788;28;20437;-50
2023/04/24 05:10:09;;;;;;;30.57;14.03;;;;;;;23.01;62.57;95368.66;4944803;28;20475;-54
2023/04/24 05:12:37;;;;;;;5.18;1.95;;;;;;;22.26;66.44;95374.31;4950083;28;20075;-55
2023/04/24 05:15:06;;;;;;;3.42;1.90;;;;;;;21.43;75.69;95373.09;4944532;28;20561;-57
2023/04/24 05:17:34;;;;;;;2.72;0.80;;;;;;;21.25;77.08;95373.25;4945627;28;20094;-54
2023/04/24 05:20:05;;;;;;;3.30;0.60;;;;;;;21.52;75.66;95378.91;4944009;28;20109;-56
2023/04/24 05:22:33;;;;;;;2.95;1.42;;;;;;;21.41;72.06;95375.22;4947863;28;20098;-55
2023/04/24 05:25:03;;;;;;;1.08;0.52;;;;;;;21.99;70.14;95387.53;4948278;28;20097;-56
2023/04/24 05:27:31;;;;;;;0.73;0.63;;;;;;;21.78;71.40;95383.69;4947120;28;20090;-60
2023/04/24 05:30:00;;;;;;;1.50;0.80;;;;;;;21.99;70.51;95389.41;4948544;28;20098;-60
2023/04/24 05:32:28;;;;;;;1.90;0.50;;;;;;;22.43;67.65;95385.03;4945871;28;20131;-56
2023/04/24 05:34:56;;;;;;;0.70;0.50;;;;;;;21.88;72.83;95383.03;4945044;28;20074;-53
2023/04/24 05:37:25;;;;;;;0.85;0.52;;;;;;;21.96;69.83;95374.59;4941770;28;20758;-56
2023/04/24 05:39:54;;;;;;;2.30;0.63;;;;;;;21.84;70.76;95384.56;4957029;28;20093;-57
2023/04/24 05:42:23;;;;;;;0.60;0.40;;;;;;;21.92;70.32;95380.66;4944181;28;20105;-60
2023/04/24 05:44:53;;;;;;;1.17;0.60;;;;;;;22.03;68.08;95386.00;4945128;28;20492;-56
2023/04/24 05:47:26;;;;;;;2.20;0.70;;;;;;;21.83;70.75;95391.00;4944639;28;20117;-55
2023/04/24 05:49:54;;;;;;;0.90;0.50;;;;;;;21.93;69.90;95391.19;4950512;28;20105;-58
2023/04/24 05:52:23;;;;;;;0.90;0.60;;;;;;;22.08;68.21;95387.94;4942995;28;20965;-59
2023/04/24 05:54:51;;;;;;;0.88;0.50;;;;;;;22.58;65.19;95387.16;4945334;28;20090;-53
2023/04/24 05:57:20;;;;;;;1.40;0.50;;;;;;;22.13;67.93;95392.59;4946973;28;20094;-61
2023/04/24 05:59:50;;;;;;;1.02;0.50;;;;;;;22.44;64.76;95393.94;4942887;28;20093;-59
2023/04/24 06:02:18;;;;;;;0.60;0.50;;;;;;;22.32;64.64;95385.94;4946500;28;20777;-57
2023/04/24 06:04:46;;;;;;;0.88;0.47;;;;;;;22.41;62.13;95391.72;4945052;28;20087;-55
2023/04/24 06:07:15;;;;;;;1.17;0.70;;;;;;;22.11;66.20;95394.69;4946671;28;20543;-57
2023/04/24 06:09:44;;;;;;;0.80;0.40;;;;;;;22.58;63.66;95395.22;4949157;28;20087;-58
2023/04/24 06:12:12;;;;;;;0.45;0.40;;;;;;;22.57;64.51;95400.81;4947596;28;20085;-59
2023/04/24 06:14:41;;;;;;;1.58;0.40;;;;;;;22.75;61.02;95401.38;4949227;28;20090;-56
2023/04/24 06:17:10;;;;;;;0.75;0.55;;;;;;;23.23;60.02;95396.41;4949547;28;20093;-58
2023/04/24 06:19:38;;;;;;;0.90;0.45;;;;;;;23.13;60.96;95396.28;4946442;28;20091;-57
2023/04/24 06:22:07;;;;;;;1.08;0.50;;;;;;;22.27;62.57;95400.09;4954388;28;20558;-60
2023/04/24 06:24:38;;;;;;;0.75;0.50;;;;;;;22.83;61.97;95402.00;4958685;28;20083;-53
2023/04/24 06:27:06;;;;;;;1.13;0.40;;;;;;;22.22;66.58;95389.28;4941509;28;20095;-54
2023/04/24 06:29:34;;;;;;;1.00;0.50;;;;;;;22.33;63.53;95392.94;4944034;28;20494;-51
2023/04/24 06:32:03;;;;;;;0.50;0.40;;;;;;;22.19;64.14;95397.81;4943457;28;20480;-56
2023/04/24 06:34:33;;;;;;;0.73;0.40;;;;;;;22.63;62.22;95407.91;4956485;28;20094;-55
2023/04/24 06:37:02;;;;;;;0.47;0.30;;;;;;;22.91;59.36;95399.69;4949295;28;20090;-54
2023/04/24 06:39:30;;;;;;;1.15;0.50;;;;;;;23.68;56.85;95389.94;4949613;28;20483;-52
2023/04/24 06:41:59;;;;;;;0.90;0.38;;;;;;;23.29;58.24;95398.06;4948527;28;20085;-55
2023/04/24 06:44:27;;;;;;;0.45;0.20;;;;;;;23.44;57.18;95402.84;4948336;28;20086;-58
2023/04/24 06:46:55;;;;;;;0.38;0.25;;;;;;;21.89;63.78;95413.38;4948727;28;20059;-56
2023/04/24 06:49:24;;;;;;;2.03;0.60;;;;;;;23.77;57.79;95399.16;4950556;28;20083;-58
2023/04/24 06:51:53;;;;;;;0.57;0.40;;;;;;;23.52;59.18;95407.75;4962659;28;20087;-58
2023/04/24 06:54:22;;;;;;;0.63;0.30;;;;;;;22.22;61.81;95418.00;4959473;28;20082;-56
2023/04/24 06:56:51;;;;;;;0.77;0.40;;;;;;;21.92;68.46;95411.03;4952570;28;20083;-55
2023/04/24 06:59:19;;;;;;;1.65;0.40;;;;;;;22.50;62.44;95412.56;4951545;28;20090;-55
2023/04/24 07:01:48;;;;;;;0.45;0.40;;;;;;;22.57;63.12;95416.94;4950561;28;20075;-53
2023/04/24 07:04:16;;;;;;;0.88;0.35;;;;;;;21.83;69.03;95420.53;4948474;28;20094;-56
2023/04/24 07:06:46;;;;;;;1.35;0.47;;;;;;;22.98;62.70;95421.88;4949532;28;20082;-55
2023/04/24 07:09:15;;;;;;;0.20;0.20;;;;;;;21.99;66.14;95419.75;4956634;28;20075;-54
2023/04/24 07:11:44;;;;;;;1.75;0.30;;;;;;;22.27;63.33;95424.28;4946267;28;20490;-57
2023/04/24 07:14:12;;;;;;;0.40;0.40;;;;;;;22.80;62.89;95424.00;4953453;28;20568;-59
2023/04/24 07:16:41;;;;;;;0.63;0.30;;;;;;;22.42;65.95;95421.03;4951540;28;20526;-59
2023/04/24 07:19:09;;;;;;;1.00;0.32;;;;;;;22.63;62.74;95418.66;4955613;28;20086;-57
2023/04/24 07:21:38;;;;;;;0.38;0.20;;;;;;;22.97;61.51;95419.44;4950972;28;22682;-55
2023/04/24 07:24:09;;;;;;;0.43;0.10;;;;;;;21.51;66.37;95422.88;4958470;28;20093;-57
2023/04/24 07:26:39;;;;;;;0.20;0.20;;;;;;;22.35;66.55;95420.38;4953303;28;20086;-56
2023/04/24 07:29:08;;;;;;;0.93;0.40;;;;;;;23.09;62.43;95422.00;4952590;28;20086;-55
2023/04/24 07:31:36;;;;;;;0.35;0.20;;;;;;;23.36;59.88;95414.81;4956324;28;20090;-54
2023/04/24 07:34:05;;;;;;;0.65;0.30;;;;;;;23.42;56.36;95423.78;4957090;28;20474;-54
2023/04/24 07:36:33;;;;;;;2.20;0.30;;;;;;;22.26;59.97;95424.50;4952973;28;20550;-57
2023/04/24 07:39:01;;;;;;;0.63;0.25;;;;;;;22.77;57.93;95429.88;4946525;28;20264;-54
2023/04/24 07:41:30;;;;;;;0.52;0.35;;;;;;;22.87;56.61;95435.41;4957251;28;20082;-55
2023/04/24 07:43:59;;;;;;;4.28;0.30;;;;;;;22.40;61.35;95455.38;4955387;28;20098;-57
2023/04/24 07:46:29;;;;;;;4.63;0.50;;;;;;;23.19;56.00;95447.19;4950566;28;20887;-56
2023/04/24 07:48:59;;;;;;;0.35;0.20;;;;;;;23.27;53.09;95442.44;4947054;28;20090;-60
2023/04/24 07:51:41;;;;;;;0.47;0.20;;;;;;;22.71;57.72;95427.13;4948874;28;20085;-55
2023/04/24 07:54:10;;;;;;;0.75;0.30;;;;;;;23.44;57.45;95441.31;4933321;28;20090;-55
2023/04/24 07:56:38;;;;;;;0.70;0.20;;;;;;;22.59;57.16;95449.75;4950560;28;20114;-55
2023/04/24 07:59:09;;;;;;;0.70;0.30;;;;;;;21.97;59.09;95432.59;4949402;28;20083;-57
2023/04/24 08:01:37;;;;;;;0.15;0.15;;;;;;;22.05;61.54;95452.84;4950192;28;20070;-56
2023/04/24 08:04:06;;;;;;;0.50;0.20;;;;;;;21.78;62.21;95455.31;4951375;28;20515;-59
2023/04/24 08:06:35;;;;;;;0.70;0.20;;;;;;;21.36;63.78;95460.91;4948696;28;20086;-55
2023/04/24 08:09:03;;;;;;;4.30;0.30;;;;;;;22.02;64.52;95456.84;4940351;28;20093;-57
2023/04/24 08:11:32;;;;;;;1.27;0.55;;;;;;;21.76;61.93;95460.13;4949627;28;20120;-54
2023/04/24 08:14:01;;;;;;;1.05;0.30;;;;;;;22.26;60.10;95462.94;4951665;28;20070;-54
2023/04/24 08:16:30;;;;;;;0.20;0.20;;;;;;;22.29;61.45;95461.63;4951607;28;20086;-56
2023/04/24 08:18:59;;;;;;;0.38;0.10;;;;;;;21.10;65.49;95449.63;4948846;28;20527;-57
2023/04/24 08:21:27;;;;;;;0.57;0.22;;;;;;;21.71;62.86;95465.38;4953581;28;20086;-55
2023/04/24 08:23:55;;;;;;;0.28;0.28;;;;;;;22.16;64.63;95465.44;4958647;28;20094;-58
2023/04/24 08:26:23;;;;;;;0.30;0.30;;;;;;;21.41;68.56;95466.41;4948438;28;20136;-58
2023/04/24 08:28:52;;;;;;;0.20;0.20;;;;;;;21.29;66.43;95462.88;4954205;28;20090;-58
2023/04/24 08:31:20;;;;;;;0.22;0.20;;;;;;;21.46;69.00;95474.53;4949563;28;20051;-54
2023/04/24 08:33:50;;;;;;;1.38;0.30;;;;;;;21.06;72.83;95477.97;4953462;28;20094;-56
2023/04/24 08:36:18;;;;;;;0.30;0.30;;;;;;;21.01;68.11;95472.47;4948766;28;20093;-60
2023/04/24 08:38:47;;;;;;;0.40;0.30;;;;;;;21.25;71.33;95483.19;4944551;28;20110;-53
2023/04/24 08:41:15;;;;;;;0.80;0.20;;;;;;;20.56;83.36;95470.38;4947034;28;20474;-52
2023/04/24 08:43:44;;;;;;;0.30;0.30;;;;;;;20.80;81.11;95494.50;4949890;28;20539;-53
2023/04/24 08:46:14;;;;;;;0.30;0.30;;;;;;;21.02;81.67;95495.53;4949651;28;20081;-60
2023/04/24 08:48:42;;;;;;;1.10;0.55;;;;;;;21.17;80.24;95497.78;4952803;28;20085;-59
2023/04/24 08:51:12;;;;;;;1.25;0.38;;;;;;;20.32;74.89;95515.00;4941916;28;20074;-55
2023/04/24 08:53:41;;;;;;;0.68;0.50;;;;;;;19.55;76.27;95538.84;4952856;28;20079;-58
2023/04/24 08:56:09;;;;;;;0.80;0.52;;;;;;;19.94;88.46;95517.22;4949118;28;20087;-56
2023/04/24 08:58:38;;;;;;;1.00;0.60;;;;;;;19.94;84.34;95525.25;4938495;28;20066;-52
2023/04/24 09:01:06;;;;;;;2.13;0.50;;;;;;;21.08;75.09;95512.56;4940858;28;20078;-58
2023/04/24 09:03:35;;;;;;;1.67;0.57;;;;;;;21.08;70.92;95521.44;4947979;28;20090;-56
2023/04/24 09:06:05;;;;;;;0.57;0.40;;;;;;;22.42;62.52;95515.03;4946866;28;20866;-54
2023/04/24 09:08:35;;;;;;;0.73;0.50;;;;;;;22.18;61.17;95529.66;4948787;28;20097;-56
2023/04/24 09:11:04;;;;;;;0.45;0.40;;;;;;;21.86;65.43;95538.16;4946444;28;20086;-54
2023/04/24 09:13:33;;;;;;;0.40;0.30;;;;;;;22.45;59.61;95528.00;4941628;28;20086;-56
2023/04/24 09:16:01;;;;;;;1.25;0.60;;;;;;;21.75;63.24;95534.44;4945292;28;20098;-58
2023/04/24 09:18:30;;;;;;;2.13;0.63;;;;;;;22.41;61.28;95521.47;4945260;28;20066;-59
2023/04/24 09:20:59;;;;;;;0.50;0.30;;;;;;;22.14;56.15;95523.09;4941653;28;20553;-52
2023/04/24 09:23:28;;;;;;;0.80;0.40;;;;;;;22.41;61.04;95517.97;4942970;28;20080;-56
2023/04/24 09:25:59;;;;;;;0.68;0.35;;;;;;;21.58;61.04;95514.78;4948175;28;20086;-55
2023/04/24 09:28:31;;;;;;;0.30;0.28;;;;;;;21.86;54.99;95519.34;4949598;28;20098;-56
2023/04/24 09:31:07;;;;;;;0.50;0.38;;;;;;;22.33;55.57;95513.78;4943296;28;20648;-55
2023/04/24 09:33:35;;;;;;;0.60;0.50;;;;;;;22.91;55.28;95515.31;4944771;28;20083;-55
2023/04/24 09:36:05;;;;;;;1.10;0.40;;;;;;;22.84;52.61;95520.03;4948269;28;20086;-55
2023/04/24 09:38:35;;;;;;;2.90;0.52;;;;;;;23.51;50.68;95507.59;4944202;28;20083;-60
2023/04/24 09:41:06;;;;;;;0.40;0.40;;;;;;;23.86;48.66;95523.41;4944907;28;20526;-55
2023/04/24 09:43:35;;;;;;;0.82;0.50;;;;;;;25.01;46.72;95512.38;4948118;28;20081;-59
2023/04/24 09:46:07;;;;;;;0.75;0.50;;;;;;;22.93;46.47;95510.53;4939971;28;20070;-53
2023/04/24 09:48:37;;;;;;;0.47;0.28;;;;;;;22.15;46.42;95522.06;4944486;28;20097;-58
2023/04/24 09:51:10;;;;;;;2.40;0.70;;;;;;;21.59;45.68;95515.59;4951998;28;20063;-59
2023/04/24 09:53:39;;;;;;;1.05;0.50;;;;;;;21.81;46.49;95527.28;4943759;28;20090;-58
2023/04/24 09:56:12;;;;;;;0.93;0.50;;;;;;;22.94;46.11;95522.91;4946665;28;20090;-58
2023/04/24 09:58:40;;;;;;;0.65;0.55;;;;;;;22.78;46.23;95517.50;4952560;28;20082;-59
2023/04/24 10:01:08;;;;;;;1.23;0.60;;;;;;;22.07;46.08;95514.38;4953481;28;20074;-58
2023/04/24 10:03:37;;;;;;;1.17;0.50;;;;;;;22.57;43.23;95506.41;4949482;28;20557;-58
2023/04/24 10:06:08;;;;;;;0.85;0.60;;;;;;;23.10;45.11;95515.91;4944399;28;20067;-55
2023/04/24 10:08:37;;;;;;;1.23;0.70;;;;;;;22.48;44.40;95510.59;4949513;28;20190;-58
2023/04/24 10:11:07;;;;;;;0.93;0.60;;;;;;;23.16;42.21;95516.81;4948296;28;20083;-55
2023/04/24 10:13:37;;;;;;;2.13;0.70;;;;;;;22.72;42.89;95516.63;4955119;28;20083;-55
2023/04/24 10:16:05;;;;;;;2.00;0.50;;;;;;;22.72;43.90;95514.75;4948341;28;20075;-54
2023/04/24 10:18:34;;;;;;;0.55;0.40;;;;;;;22.86;44.38;95517.94;4946809;28;20090;-56
2023/04/24 10:21:03;;;;;;;2.25;0.60;;;;;;;22.23;44.09;95521.69;4947418;28;20086;-55
2023/04/24 10:23:31;;;;;;;1.42;0.73;;;;;;;23.20;44.01;95515.25;4952556;28;20472;-53
2023/04/24 10:26:01;;;;;;;1.38;0.80;;;;;;;23.81;44.21;95515.25;4949375;28;20070;-52
2023/04/24 10:28:31;;;;;;;5.53;1.63;;;;;;;24.06;41.80;95510.16;4946523;28;20086;-57
2023/04/24 10:31:01;;;;;;;1.25;0.85;;;;;;;23.60;42.92;95514.16;4948174;28;20898;-52
2023/04/24 10:33:30;;;;;;;1.85;0.60;;;;;;;23.58;42.88;95505.53;4945789;28;20082;-52
2023/04/24 10:35:59;;;;;;;0.60;0.52;;;;;;;23.36;44.27;95524.31;4942290;28;20082;-54
2023/04/24 10:38:29;;;;;;;0.93;0.65;;;;;;;23.44;43.58;95508.59;4938780;28;20096;-57
2023/04/24 10:41:09;;;;;;;4.75;1.00;;;;;;;24.06;43.84;95503.97;4947505;28;20075;-54
2023/04/24 10:43:37;;;;;;;0.60;0.50;;;;;;;23.90;41.65;95498.41;4937444;28;20155;-57
2023/04/24 10:46:08;;;;;;;0.95;0.68;;;;;;;23.96;41.39;95499.28;4943087;28;20126;-55
2023/04/24 10:48:36;;;;;;;;;;;;;;;23.70;41.83;95498.16;4946945;28;20086;-54
2023/04/24 10:51:04;;;;;;;1.00;0.50;;;;;;;23.82;41.45;95489.97;4947056;28;19976;-52
2023/04/24 10:53:35;;;;;;;0.95;0.82;;;;;;;24.93;38.99;95486.72;4953545;28;20089;-57
2023/04/24 10:56:05;;;;;;;3.30;0.70;;;;;;;24.40;40.45;95493.84;4945101;28;20059;-57
2023/04/24 10:58:39;;;;;;;1.08;0.50;;;;;;;24.22;40.41;95502.22;4945774;28;20078;-56
2023/04/24 11:01:09;;;;;;;3.85;0.82;;;;;;;24.82;40.27;95502.00;4945640;28;20125;-60
2023/04/24 11:03:41;;;;;;;1.10;0.50;;;;;;;25.01;40.69;95504.28;4945642;28;20159;-55
2023/04/24 11:06:10;;;;;;;1.15;0.63;;;;;;;25.29;39.86;95487.78;4943425;28;20093;-60
2023/04/24 11:08:40;;;;;;;3.38;0.70;;;;;;;23.80;40.50;95462.47;4945493;28;20097;-62
2023/04/24 11:11:12;;;;;;;1.30;0.70;;;;;;;22.44;44.70;95502.19;4941975;28;20087;-54
2023/04/24 11:14:08;;;;;;;0.88;0.40;;;;;;;21.18;51.07;95520.84;4943224;28;20082;-54
2023/04/24 11:16:44;;;;;;;2.10;0.57;;;;;;;21.10;52.27;95522.03;4909391;28;20087;-57
2023/04/24 11:19:21;;;;;;;1.00;0.60;;;;;;;21.59;50.43;95537.03;4942152;28;20082;-58
2023/04/24 11:22:00;;;;;;;0.63;0.30;;;;;;;21.68;49.96;95528.41;4944831;28;20090;-59
2023/04/24 11:24:31;;;;;;;0.63;0.50;;;;;;;21.48;51.72;95538.69;4946648;28;20058;-59
2023/04/24 11:27:06;;;;;;;1.05;0.68;;;;;;;20.11;53.75;95553.00;4943595;28;20085;-61
2023/04/24 11:29:46;;;;;;;1.08;0.40;;;;;;;20.34;53.87;95557.66;4936963;28;20097;-59
2023/04/24 11:32:25;;;;;;;1.15;0.40;;;;;;;21.20;54.65;95567.03;4945571;28;20760;-55
2023/04/24 11:34:56;;;;;;;1.17;0.50;;;;;;;21.06;54.86;95571.78;4941568;28;20551;-57
2023/04/24 11:37:27;;;;;;;0.35;0.30;;;;;;;20.56;52.40;95569.47;4943210;28;20685;-53
2023/04/24 11:39:58;;;;;;;0.93;0.60;;;;;;;20.68;52.50;95556.13;4939199;28;20083;-56
2023/04/24 11:42:28;;;;;;;0.20;0.20;;;;;;;21.26;51.48;95557.22;4944353;28;20094;-59
2023/04/24 11:44:57;;;;;;;0.70;0.40;;;;;;;21.44;51.60;95561.66;4943090;28;20082;-61